createdAt,value
2023-01-07T00:01:09.463Z,21.48
2023-01-07T00:03:37.616Z,13.48
2023-01-07T00:06:08.972Z,14.40
2023-01-07T00:08:38.402Z,16.27
2023-01-07T00:11:07.569Z,17.40
2023-01-07T00:13:36.035Z,13.52
2023-01-07T00:16:06.708Z,17.00
2023-01-07T00:18:35.529Z,16.67
2023-01-07T00:21:07.841Z,13.93
2023-01-07T00:23:37.697Z,14.77
2023-01-07T00:26:08.555Z,20.15
2023-01-07T00:28:38.202Z,12.75
2023-01-07T00:31:09.768Z,16.85
2023-01-07T00:33:44.516Z,19.48
2023-01-07T00:36:13.923Z,23.52
2023-01-07T00:38:42.026Z,15.95
2023-01-07T00:41:11.056Z,13.32
2023-01-07T00:43:38.812Z,16.02
2023-01-07T00:46:07.077Z,16.55
2023-01-07T00:48:39.467Z,17.27
2023-01-07T00:51:07.694Z,11.35
2023-01-07T00:53:36.804Z,15.82
2023-01-07T00:56:06.914Z,13.60
2023-01-07T00:58:34.696Z,15.52
2023-01-07T01:01:03.523Z,14.38
2023-01-07T01:03:32.889Z,12.60
2023-01-07T01:06:03.419Z,18.80
2023-01-07T01:08:31.304Z,15.55
2023-01-07T01:11:05.311Z,18.92
2023-01-07T01:13:34.251Z,15.82
2023-01-07T01:16:02.568Z,13.45
2023-01-07T01:18:30.373Z,17.77
2023-01-07T01:21:03.419Z,11.50
2023-01-07T01:23:31.171Z,11.32
2023-01-07T01:26:05.444Z,15.07
2023-01-07T01:28:33.691Z,14.90
2023-01-07T01:31:01.940Z,14.35
2023-01-07T01:33:29.915Z,14.20
2023-01-07T01:35:57.961Z,13.35
2023-01-07T01:38:25.710Z,11.77
2023-01-07T01:40:53.581Z,12.35
2023-01-07T01:43:30.580Z,12.40
2023-01-07T01:46:01.998Z,13.50
2023-01-07T01:48:30.853Z,17.00
2023-01-07T01:50:59.133Z,11.38
2023-01-07T01:53:31.184Z,12.93
2023-01-07T01:56:04.011Z,13.40
2023-01-07T01:58:37.478Z,13.30
2023-01-07T02:01:05.843Z,13.38
2023-01-07T02:03:36.345Z,12.98
2023-01-07T02:06:05.143Z,12.35
2023-01-07T02:08:33.210Z,15.10
2023-01-07T02:11:13.011Z,13.23
2023-01-07T02:13:56.129Z,9.48
2023-01-07T02:16:35.958Z,15.75
2023-01-07T02:19:32.892Z,11.35
2023-01-07T02:22:07.592Z,14.93
2023-01-07T02:25:06.819Z,14.60
2023-01-07T02:28:05.736Z,14.18
2023-01-07T02:30:46.403Z,15.10
2023-01-07T02:33:42.012Z,13.52
2023-01-07T02:36:40.982Z,14.80
2023-01-07T02:39:23.117Z,14.50
2023-01-07T02:41:58.794Z,12.52
2023-01-07T02:44:36.535Z,16.02
2023-01-07T02:47:10.683Z,13.23
2023-01-07T02:49:39.825Z,15.00
2023-01-07T02:52:22.857Z,9.40
2023-01-07T02:54:56.256Z,12.40
2023-01-07T02:57:53.326Z,14.05
2023-01-07T03:00:37.217Z,11.75
2023-01-07T03:03:27.196Z,16.38
2023-01-07T03:06:06.782Z,12.32
2023-01-07T03:08:50.213Z,14.45
2023-01-07T03:11:20.604Z,14.45
2023-01-07T03:13:52.473Z,14.70
2023-01-07T03:16:27.057Z,14.38
2023-01-07T03:19:02.249Z,13.60
2023-01-07T03:21:34.941Z,14.32
2023-01-07T03:24:03.333Z,11.20
2023-01-07T03:26:33.863Z,16.17
2023-01-07T03:29:04.087Z,12.50
2023-01-07T03:31:32.680Z,16.67
2023-01-07T03:34:04.080Z,13.48
2023-01-07T03:36:38.650Z,14.93
2023-01-07T03:39:08.584Z,15.70
2023-01-07T03:41:53.777Z,13.48
2023-01-07T03:44:21.815Z,11.40
2023-01-07T03:46:50.056Z,13.05
2023-01-07T03:49:17.882Z,13.23
2023-01-07T03:51:49.480Z,10.52
2023-01-07T03:54:17.574Z,14.68
2023-01-07T03:56:45.387Z,11.90
2023-01-07T03:59:13.157Z,14.02
2023-01-07T04:01:41.259Z,12.88
2023-01-07T04:04:09.599Z,10.13
2023-01-07T04:06:37.663Z,13.27
2023-01-07T04:09:06.855Z,10.85
2023-01-07T04:11:34.821Z,12.90
2023-01-07T04:14:02.701Z,11.32
2023-01-07T04:16:30.684Z,17.30
2023-01-07T04:18:58.607Z,13.32
2023-01-07T04:21:26.501Z,13.98
2023-01-07T04:23:54.324Z,16.40
2023-01-07T04:26:23.732Z,12.10
2023-01-07T04:28:51.733Z,11.85
2023-01-07T04:31:19.576Z,14.13
2023-01-07T04:33:47.669Z,17.77
2023-01-07T04:36:15.492Z,14.43
2023-01-07T04:38:43.226Z,12.40
2023-01-07T04:41:11.043Z,12.95
2023-01-07T04:43:40.255Z,11.82
2023-01-07T04:46:08.103Z,13.75
2023-01-07T04:48:36.035Z,12.77
2023-01-07T04:51:03.910Z,12.20
2023-01-07T04:53:31.746Z,15.32
2023-01-07T04:55:59.542Z,17.58
2023-01-07T04:58:27.303Z,18.00
2023-01-07T05:00:58.602Z,14.48
2023-01-07T05:03:26.667Z,17.40
2023-01-07T05:05:54.414Z,15.02
2023-01-07T05:08:22.491Z,16.60
2023-01-07T05:10:50.525Z,13.85
2023-01-07T05:13:20.281Z,16.25
2023-01-07T05:15:48.211Z,18.17
2023-01-07T05:18:17.910Z,15.32
2023-01-07T05:20:47.521Z,16.08
2023-01-07T05:23:15.273Z,11.98
2023-01-07T05:25:43.522Z,23.60
2023-01-07T05:28:12.105Z,11.95
2023-01-07T05:30:40.160Z,13.93
2023-01-07T05:33:08.728Z,17.48
2023-01-07T05:35:37.966Z,16.92
2023-01-07T05:38:05.770Z,14.52
2023-01-07T05:40:33.500Z,19.85
2023-01-07T05:43:01.573Z,17.88
2023-01-07T05:45:29.465Z,15.27
2023-01-07T05:47:57.270Z,11.98
2023-01-07T05:50:25.134Z,12.00
2023-01-07T05:52:54.262Z,12.80
2023-01-07T05:55:22.073Z,12.15
2023-01-07T05:57:49.876Z,13.77
2023-01-07T06:00:18.631Z,10.80
2023-01-07T06:02:46.426Z,15.60
2023-01-07T06:05:14.589Z,12.90
2023-01-07T06:07:42.327Z,16.70
2023-01-07T06:10:11.878Z,14.90
2023-01-07T06:12:39.768Z,15.10
2023-01-07T06:15:09.786Z,13.25
2023-01-07T06:17:37.667Z,11.98
2023-01-07T06:20:06.798Z,15.77
2023-01-07T06:22:34.652Z,10.85
2023-01-07T06:25:02.366Z,14.57
2023-01-07T06:27:31.518Z,15.75
2023-01-07T06:29:59.309Z,13.23
2023-01-07T06:32:27.222Z,11.38
2023-01-07T06:34:55.179Z,11.25
2023-01-07T06:37:22.977Z,18.35
2023-01-07T06:39:50.759Z,14.20
2023-01-07T06:42:18.820Z,16.10
2023-01-07T06:44:47.971Z,15.90
2023-01-07T06:47:15.897Z,14.60
2023-01-07T06:49:43.793Z,12.50
2023-01-07T06:52:11.592Z,15.68
2023-01-07T06:54:39.354Z,14.32
2023-01-07T06:57:07.240Z,15.63
2023-01-07T06:59:35.128Z,15.90
2023-01-07T07:02:05.339Z,19.95
2023-01-07T07:04:33.176Z,19.63
2023-01-07T07:07:00.937Z,16.67
2023-01-07T07:09:28.709Z,19.05
2023-01-07T07:11:56.540Z,17.00
2023-01-07T07:14:24.491Z,15.88
2023-01-07T07:16:52.734Z,14.65
2023-01-07T07:19:21.913Z,19.92
2023-01-07T07:21:49.797Z,15.98
2023-01-07T07:24:17.597Z,17.67
2023-01-07T07:26:45.512Z,14.75
2023-01-07T07:29:13.375Z,18.92
2023-01-07T07:31:41.309Z,16.33
2023-01-07T07:34:10.433Z,16.35
2023-01-07T07:36:39.549Z,21.17
2023-01-07T07:39:07.452Z,15.98
2023-01-07T07:41:35.237Z,18.10
2023-01-07T07:44:03.291Z,17.58
2023-01-07T07:46:31.996Z,16.65
2023-01-07T07:49:00.298Z,15.10
2023-01-07T07:51:28.038Z,11.88
2023-01-07T07:53:57.186Z,14.30
2023-01-07T07:56:24.986Z,18.63
2023-01-07T07:58:52.729Z,16.33
2023-01-07T08:01:20.696Z,13.40
2023-01-07T08:03:48.788Z,13.98
2023-01-07T08:06:16.759Z,14.07
2023-01-07T08:08:44.662Z,18.63
2023-01-07T08:11:14.096Z,17.77
2023-01-07T08:13:41.838Z,15.90
2023-01-07T08:16:09.974Z,17.15
2023-01-07T08:18:37.817Z,15.65
2023-01-07T08:21:05.827Z,14.02
2023-01-07T08:23:34.807Z,20.75
2023-01-07T08:26:03.719Z,32.58
2023-01-07T08:28:33.545Z,14.57
2023-01-07T08:31:02.818Z,14.55
2023-01-07T08:33:31.463Z,13.48
2023-01-07T08:35:59.207Z,16.77
2023-01-07T08:38:28.873Z,17.20
2023-01-07T08:40:56.656Z,16.70
2023-01-07T08:43:26.982Z,15.10
2023-01-07T08:45:56.245Z,16.08
2023-01-07T08:48:24.127Z,14.95
2023-01-07T08:50:53.357Z,12.98
2023-01-07T08:53:21.193Z,17.65
2023-01-07T08:55:48.970Z,15.00
2023-01-07T08:58:16.826Z,15.30
2023-01-07T09:00:44.837Z,17.13
2023-01-07T09:03:14.050Z,16.00
2023-01-07T09:05:42.849Z,17.52
2023-01-07T09:08:10.751Z,18.98
2023-01-07T09:10:38.669Z,18.25
2023-01-07T09:13:06.868Z,17.35
2023-01-07T09:15:34.706Z,21.23
2023-01-07T09:18:03.682Z,17.65
2023-01-07T09:20:32.844Z,14.15
2023-01-07T09:23:00.641Z,14.25
2023-01-07T09:25:28.386Z,13.98
2023-01-07T09:27:56.187Z,18.20
2023-01-07T09:30:23.919Z,12.48
2023-01-07T09:32:51.724Z,14.57
2023-01-07T09:35:19.563Z,16.45
2023-01-07T09:37:48.723Z,16.13
2023-01-07T09:40:24.604Z,13.13
2023-01-07T09:42:59.569Z,17.10
2023-01-07T09:45:31.879Z,20.27
2023-01-07T09:48:03.959Z,17.55
2023-01-07T09:50:47.719Z,12.82
2023-01-07T09:53:20.874Z,16.50
2023-01-07T09:56:10.435Z,16.30
2023-01-07T09:58:42.907Z,16.13
2023-01-07T10:01:22.317Z,13.60
2023-01-07T10:04:03.724Z,11.95
2023-01-07T10:06:43.727Z,16.50
2023-01-07T10:09:25.178Z,13.55
2023-01-07T10:12:03.318Z,13.73
2023-01-07T10:15:02.036Z,16.17
2023-01-07T10:17:46.174Z,15.10
2023-01-07T10:20:24.505Z,16.23
2023-01-07T10:22:57.744Z,14.20
2023-01-07T10:25:31.013Z,13.35
2023-01-07T10:28:05.631Z,14.70
2023-01-07T10:30:41.821Z,13.43
2023-01-07T10:33:18.860Z,13.63
2023-01-07T10:35:49.221Z,13.25
2023-01-07T10:38:20.805Z,13.82
2023-01-07T10:40:55.361Z,13.57
2023-01-07T10:43:39.230Z,16.75
2023-01-07T10:46:19.941Z,20.42
2023-01-07T10:49:05.906Z,15.60
2023-01-07T10:51:47.147Z,20.58
2023-01-07T10:54:32.362Z,18.08
2023-01-07T10:57:10.884Z,19.23
2023-01-07T10:59:39.258Z,19.77
2023-01-07T11:02:18.162Z,17.92
2023-01-07T11:04:46.297Z,17.50
2023-01-07T11:07:21.656Z,17.08
2023-01-07T11:09:50.094Z,16.33
2023-01-07T11:12:28.935Z,19.02
2023-01-07T11:14:59.755Z,29.20
2023-01-07T11:17:35.982Z,13.43
2023-01-07T11:20:05.129Z,11.90
2023-01-07T11:22:35.008Z,13.82
2023-01-07T11:25:04.537Z,13.70
2023-01-07T11:27:35.562Z,18.17
2023-01-07T11:30:07.429Z,17.33
2023-01-07T11:32:38.423Z,16.05
2023-01-07T11:35:09.000Z,16.60
2023-01-07T11:37:39.501Z,13.70
2023-01-07T11:40:23.888Z,13.18
2023-01-07T11:42:55.236Z,14.50
2023-01-07T11:45:26.382Z,13.48
2023-01-07T11:48:01.038Z,14.18
2023-01-07T11:50:37.361Z,15.52
2023-01-07T11:53:22.776Z,14.00
2023-01-07T11:55:59.219Z,17.75
2023-01-07T11:58:31.457Z,17.02
2023-01-07T12:01:14.542Z,18.73
2023-01-07T12:03:44.852Z,11.13
2023-01-07T12:06:22.228Z,14.20
2023-01-07T12:08:56.933Z,15.25
2023-01-07T12:11:32.155Z,13.70
2023-01-07T12:14:07.609Z,16.33
2023-01-07T12:16:37.235Z,13.15
2023-01-07T12:19:24.299Z,14.80
2023-01-07T12:22:03.990Z,10.20
2023-01-07T12:25:04.288Z,19.50
2023-01-07T12:27:42.499Z,14.70
2023-01-07T12:31:00.472Z,13.82
2023-01-07T12:33:46.391Z,12.95
2023-01-07T12:36:19.142Z,12.68
2023-01-07T12:38:50.542Z,12.85
2023-01-07T12:41:23.707Z,12.23
2023-01-07T12:43:59.571Z,12.75
2023-01-07T12:46:36.423Z,15.40
2023-01-07T12:49:11.687Z,15.52
2023-01-07T12:51:46.354Z,15.60
2023-01-07T12:54:19.673Z,14.75
2023-01-07T12:56:54.597Z,13.15
2023-01-07T12:59:46.665Z,16.25
2023-01-07T13:02:28.791Z,17.65
2023-01-07T13:05:06.649Z,14.73
2023-01-07T13:07:41.404Z,15.40
2023-01-07T13:10:16.911Z,15.27
2023-01-07T13:12:46.228Z,13.50
2023-01-07T13:15:21.891Z,13.20
2023-01-07T13:17:53.839Z,17.10
2023-01-07T13:20:45.406Z,16.05
2023-01-07T13:23:20.665Z,17.75
2023-01-07T13:26:16.606Z,15.52
2023-01-07T13:29:24.953Z,18.23
2023-01-07T13:32:17.408Z,22.35
2023-01-07T13:34:59.868Z,19.45
2023-01-07T13:37:45.730Z,18.98
2023-01-07T13:40:28.321Z,17.98
2023-01-07T13:43:07.371Z,19.48
2023-01-07T13:45:38.591Z,23.23
2023-01-07T13:48:18.126Z,20.27
2023-01-07T13:50:57.929Z,27.77
2023-01-07T13:53:45.933Z,26.08
2023-01-07T13:56:39.676Z,28.45
2023-01-07T13:59:29.946Z,21.25
2023-01-07T14:02:18.112Z,27.42
2023-01-07T14:04:51.727Z,25.50
2023-01-07T14:07:21.425Z,26.85
2023-01-07T14:09:51.837Z,26.50
2023-01-07T14:12:39.688Z,28.95
2023-01-07T14:15:55.860Z,28.98
2023-01-07T14:18:45.829Z,32.08
2023-01-07T14:21:23.862Z,32.50
2023-01-07T14:24:04.865Z,36.95
2023-01-07T14:26:41.407Z,36.78
2023-01-07T14:29:26.765Z,31.02
2023-01-07T14:32:21.281Z,32.97
2023-01-07T14:34:55.549Z,31.58
2023-01-07T14:37:32.723Z,32.67
2023-01-07T14:40:03.150Z,35.10
2023-01-07T14:42:48.903Z,35.20
2023-01-07T14:45:55.326Z,31.60
2023-01-07T14:48:35.105Z,38.17
2023-01-07T14:51:20.430Z,35.83
2023-01-07T14:54:07.422Z,33.75
2023-01-07T14:56:48.928Z,37.67
2023-01-07T14:59:43.424Z,32.88
2023-01-07T15:02:44.754Z,38.17
2023-01-07T15:05:30.478Z,32.33
2023-01-07T15:08:17.252Z,33.70
2023-01-07T15:11:05.204Z,35.55
2023-01-07T15:13:59.391Z,34.60
2023-01-07T15:16:28.332Z,29.45
2023-01-07T15:18:57.734Z,35.85
2023-01-07T15:21:36.817Z,38.83
2023-01-07T15:24:12.779Z,33.53
2023-01-07T15:26:49.616Z,33.38
2023-01-07T15:29:26.519Z,39.85
2023-01-07T15:32:03.340Z,33.72
2023-01-07T15:34:33.228Z,40.50
2023-01-07T15:37:05.306Z,37.28
2023-01-07T15:39:36.475Z,35.28
2023-01-07T15:42:04.294Z,35.50
2023-01-07T15:44:40.685Z,39.70
2023-01-07T15:47:40.040Z,36.70
2023-01-07T15:50:30.077Z,35.75
2023-01-07T15:53:00.864Z,39.42
2023-01-07T15:55:31.699Z,36.97
2023-01-07T15:58:06.741Z,39.17
2023-01-07T16:00:36.960Z,37.33
2023-01-07T16:03:06.101Z,39.83
2023-01-07T16:05:37.914Z,45.35
2023-01-07T16:08:06.774Z,43.28
2023-01-07T16:10:35.977Z,40.08
2023-01-07T16:13:05.907Z,52.78
2023-01-07T16:15:37.698Z,53.92
2023-01-07T16:18:18.910Z,78.60
2023-01-07T16:20:54.593Z,101.85
2023-01-07T16:23:24.827Z,47.58
2023-01-07T16:25:57.308Z,56.17
2023-01-07T16:28:28.475Z,52.70
2023-01-07T16:30:58.904Z,43.70
2023-01-07T16:33:31.202Z,55.90
2023-01-07T16:36:01.548Z,61.15
2023-01-07T16:38:32.179Z,43.85
2023-01-07T16:41:00.974Z,49.25
2023-01-07T16:43:34.731Z,51.58
2023-01-07T16:46:18.590Z,46.10
2023-01-07T16:48:46.643Z,45.00
2023-01-07T16:51:38.447Z,55.60
2023-01-07T16:54:31.892Z,147.90
2023-01-07T16:57:01.484Z,247.55
2023-01-07T16:59:31.899Z,67.43
2023-01-07T17:02:10.940Z,66.88
2023-01-07T17:04:39.088Z,67.60
2023-01-07T17:07:07.767Z,47.38
2023-01-07T17:09:38.740Z,56.97
2023-01-07T17:12:06.979Z,54.13
2023-01-07T17:14:50.920Z,51.75
2023-01-07T17:17:25.048Z,61.40
2023-01-07T17:19:55.632Z,44.83
2023-01-07T17:22:32.489Z,53.75
2023-01-07T17:30:41.919Z,44.58
2023-01-07T17:33:16.537Z,48.45
2023-01-07T17:35:46.777Z,51.15
2023-01-07T17:38:15.769Z,53.05
2023-01-07T17:40:43.764Z,49.90
2023-01-07T17:43:34.433Z,45.58
2023-01-07T17:46:02.761Z,50.17
2023-01-07T17:48:32.276Z,58.60
2023-01-07T17:51:01.478Z,57.22
2023-01-07T17:53:32.439Z,48.60
2023-01-07T17:56:04.776Z,44.58
2023-01-07T17:58:34.342Z,50.85
2023-01-07T18:01:06.519Z,47.05
2023-01-07T18:03:35.971Z,47.60
2023-01-07T18:06:04.697Z,48.47
2023-01-07T18:08:32.549Z,65.95
2023-01-07T18:11:17.943Z,65.45
2023-01-07T18:13:45.810Z,48.58
2023-01-07T18:16:15.379Z,47.00
2023-01-07T18:18:44.505Z,50.65
2023-01-07T18:21:13.381Z,51.42
2023-01-07T18:23:41.369Z,48.92
2023-01-07T18:26:09.338Z,45.08
2023-01-07T18:28:37.110Z,52.85
2023-01-07T18:31:05.519Z,55.58
2023-01-07T18:33:35.129Z,45.17
2023-01-07T18:36:05.140Z,47.67
2023-01-07T18:38:32.934Z,49.17
2023-01-07T18:41:00.685Z,48.97
2023-01-07T18:43:28.521Z,44.28
2023-01-07T18:45:56.387Z,54.83
2023-01-07T18:48:24.484Z,44.47
2023-01-07T18:50:52.425Z,41.08
2023-01-07T18:53:22.463Z,46.15
2023-01-07T18:55:58.627Z,44.42
2023-01-07T18:58:28.550Z,49.55
2023-01-07T19:00:56.556Z,46.30
2023-01-07T19:03:24.440Z,51.95
2023-01-07T19:05:52.188Z,46.33
2023-01-07T19:08:21.299Z,54.22
2023-01-07T19:10:51.916Z,53.60
2023-01-07T19:13:19.744Z,54.67
2023-01-07T19:15:47.589Z,56.28
2023-01-07T19:18:15.510Z,45.20
2023-01-07T19:20:43.298Z,47.28
2023-01-07T19:23:11.262Z,54.22
2023-01-07T19:25:40.374Z,52.72
2023-01-07T19:28:08.347Z,63.20
2023-01-07T19:30:36.382Z,46.63
2023-01-07T19:33:06.417Z,48.35
2023-01-07T19:35:34.270Z,43.60
2023-01-07T19:38:02.025Z,43.78
2023-01-07T19:40:29.796Z,55.50
2023-01-07T19:42:58.955Z,59.60
2023-01-07T19:45:26.777Z,60.58
2023-01-07T19:47:54.683Z,51.47
2023-01-07T19:50:22.563Z,53.70
2023-01-07T19:52:50.278Z,68.78
2023-01-07T19:55:18.710Z,57.22
2023-01-07T19:57:46.494Z,53.78
2023-01-07T20:00:16.188Z,58.10
2023-01-07T20:02:44.107Z,48.60
2023-01-07T20:05:11.941Z,48.72
2023-01-07T20:07:39.851Z,57.97
2023-01-07T20:10:08.718Z,55.72
2023-01-07T20:12:36.787Z,57.83
2023-01-07T20:15:04.978Z,49.53
2023-01-07T20:17:34.266Z,62.75
2023-01-07T20:20:02.344Z,54.72
2023-01-07T20:22:30.232Z,57.17
2023-01-07T20:24:58.052Z,60.78
2023-01-07T20:27:26.025Z,69.28
2023-01-07T20:29:54.933Z,66.13
2023-01-07T20:32:22.671Z,65.50
2023-01-07T20:34:51.971Z,55.70
2023-01-07T20:37:19.810Z,57.67
2023-01-07T20:39:48.077Z,60.03
2023-01-07T20:42:15.954Z,68.03
2023-01-07T20:44:43.798Z,80.50
2023-01-07T20:47:11.620Z,53.88
2023-01-07T20:49:39.434Z,57.67
2023-01-07T20:52:08.567Z,83.05
2023-01-07T20:54:36.456Z,81.30
2023-01-07T20:57:04.463Z,56.70
2023-01-07T20:59:35.033Z,70.25
2023-01-07T21:02:03.010Z,65.57
2023-01-07T21:04:31.946Z,60.00
2023-01-07T21:06:59.708Z,63.08
2023-01-07T21:09:28.859Z,67.25
2023-01-07T21:11:56.640Z,67.57
2023-01-07T21:14:24.386Z,59.15
2023-01-07T21:16:52.223Z,65.93
2023-01-07T21:19:20.278Z,54.83
2023-01-07T21:21:48.635Z,61.33
2023-01-07T21:24:17.434Z,48.55
2023-01-07T21:26:46.709Z,51.45
2023-01-07T21:29:16.016Z,45.47
2023-01-07T21:31:45.307Z,58.58
2023-01-07T21:34:13.213Z,91.05
2023-01-07T21:36:41.507Z,61.20
2023-01-07T21:39:09.569Z,56.58
2023-01-07T21:41:37.525Z,57.58
2023-01-07T21:44:07.059Z,59.65
2023-01-07T21:46:34.799Z,50.50
2023-01-07T21:49:03.820Z,61.55
2023-01-07T21:51:31.716Z,68.88
2023-01-07T21:54:00.889Z,79.32
2023-01-07T21:56:32.702Z,73.03
2023-01-07T21:59:01.143Z,61.67
2023-01-07T22:01:30.656Z,53.80
2023-01-07T22:03:59.500Z,57.20
2023-01-07T22:06:29.208Z,46.05
2023-01-07T22:08:58.651Z,52.03
2023-01-07T22:11:28.034Z,49.42
2023-01-07T22:13:57.910Z,44.45
2023-01-07T22:16:27.972Z,44.17
2023-01-07T22:18:58.152Z,52.50
2023-01-07T22:21:26.171Z,42.70
2023-01-07T22:23:54.006Z,40.30
2023-01-07T22:26:24.001Z,39.53
2023-01-07T22:28:54.304Z,36.50
2023-01-07T22:31:24.129Z,33.60
2023-01-07T22:33:53.045Z,34.40
2023-01-07T22:36:27.231Z,33.55
2023-01-07T22:38:57.905Z,33.05
2023-01-07T22:41:28.298Z,28.38
2023-01-07T22:43:56.377Z,29.35
2023-01-07T22:46:26.294Z,31.05
2023-01-07T22:48:54.336Z,32.80
2023-01-07T22:51:27.766Z,29.80
2023-01-07T22:53:58.240Z,26.63
2023-01-07T22:56:26.405Z,29.25
2023-01-07T22:58:55.173Z,32.03
2023-01-07T23:01:23.091Z,27.45
2023-01-07T23:03:50.950Z,26.88
2023-01-07T23:06:18.945Z,28.17
2023-01-07T23:08:48.181Z,27.45
2023-01-07T23:11:36.055Z,27.23
2023-01-07T23:14:04.925Z,26.00
2023-01-07T23:16:33.223Z,24.63
2023-01-07T23:19:01.099Z,28.38
2023-01-07T23:21:31.428Z,20.35
2023-01-07T23:24:01.496Z,27.40
2023-01-07T23:26:29.339Z,25.88
2023-01-07T23:28:57.235Z,27.55
2023-01-07T23:31:25.037Z,24.80
2023-01-07T23:33:53.200Z,27.67
2023-01-07T23:36:21.265Z,26.20
2023-01-07T23:38:49.056Z,28.45
2023-01-07T23:41:18.771Z,28.67
2023-01-07T23:43:46.557Z,25.55
2023-01-07T23:46:14.579Z,29.40
2023-01-07T23:48:42.379Z,25.23
2023-01-07T23:51:13.869Z,28.02
2023-01-07T23:53:42.430Z,30.45
2023-01-07T23:56:11.257Z,37.80
2023-01-07T23:58:40.911Z,38.65
